sensor_id;sensor_type;location;lat;lon;timestamp;pressure;altitude;pressure_sealevel;temperature;humidity
56040;BME280;43937;41.366;2.072;2023-08-01T00:01:02;100607.47;;;29.72;72.36
56040;BME280;43937;41.366;2.072;2023-08-01T00:03:28;100598.84;;;29.63;72.80
56040;BME280;43937;41.366;2.072;2023-08-01T00:05:53;100598.22;;;29.72;71.78
56040;BME280;43937;41.366;2.072;2023-08-01T00:08:20;100597.66;;;29.70;71.99
56040;BME280;43937;41.366;2.072;2023-08-01T00:10:46;100590.44;;;29.63;72.24
56040;BME280;43937;41.366;2.072;2023-08-01T00:13:12;100587.63;;;29.63;72.06
56040;BME280;43937;41.366;2.072;2023-08-01T00:15:37;100578.03;;;29.70;71.76
56040;BME280;43937;41.366;2.072;2023-08-01T00:18:03;100571.00;;;29.72;72.04
56040;BME280;43937;41.366;2.072;2023-08-01T00:20:28;100543.75;;;29.49;71.82
56040;BME280;43937;41.366;2.072;2023-08-01T00:22:54;100558.91;;;29.48;72.48
56040;BME280;43937;41.366;2.072;2023-08-01T00:25:19;100562.78;;;29.52;72.09
56040;BME280;43937;41.366;2.072;2023-08-01T00:27:45;100560.09;;;29.41;72.54
56040;BME280;43937;41.366;2.072;2023-08-01T00:30:10;100554.66;;;29.50;71.59
56040;BME280;43937;41.366;2.072;2023-08-01T00:32:37;100544.63;;;29.44;71.64
56040;BME280;43937;41.366;2.072;2023-08-01T00:35:03;100533.56;;;29.29;72.31
56040;BME280;43937;41.366;2.072;2023-08-01T00:37:28;100542.97;;;29.43;72.10
56040;BME280;43937;41.366;2.072;2023-08-01T00:39:54;100534.50;;;29.48;72.13
56040;BME280;43937;41.366;2.072;2023-08-01T00:42:19;100515.50;;;29.40;71.67
56040;BME280;43937;41.366;2.072;2023-08-01T00:44:45;100539.50;;;29.51;72.78
56040;BME280;43937;41.366;2.072;2023-08-01T00:47:13;100497.63;;;29.36;71.92
56040;BME280;43937;41.366;2.072;2023-08-01T00:49:38;100526.00;;;29.53;72.36
56040;BME280;43937;41.366;2.072;2023-08-01T00:52:05;100513.25;;;29.42;72.65
56040;BME280;43937;41.366;2.072;2023-08-01T00:54:30;100508.59;;;29.32;72.81
56040;BME280;43937;41.366;2.072;2023-08-01T00:57:04;100544.47;;;29.59;72.62
56040;BME280;43937;41.366;2.072;2023-08-01T00:59:29;100523.38;;;29.38;71.82
56040;BME280;43937;41.366;2.072;2023-08-01T01:01:55;100538.72;;;29.45;72.80
56040;BME280;43937;41.366;2.072;2023-08-01T01:04:21;100527.28;;;29.42;72.47
56040;BME280;43937;41.366;2.072;2023-08-01T01:06:51;100521.34;;;29.43;72.32
56040;BME280;43937;41.366;2.072;2023-08-01T01:09:19;100527.50;;;29.45;71.84
56040;BME280;43937;41.366;2.072;2023-08-01T01:11:45;100510.03;;;29.30;72.42
56040;BME280;43937;41.366;2.072;2023-08-01T01:14:11;100516.25;;;29.27;71.55
56040;BME280;43937;41.366;2.072;2023-08-01T01:16:36;100516.59;;;29.20;71.54
56040;BME280;43937;41.366;2.072;2023-08-01T01:19:06;100510.84;;;29.06;72.44
56040;BME280;43937;41.366;2.072;2023-08-01T01:21:34;100522.97;;;28.96;72.65
56040;BME280;43937;41.366;2.072;2023-08-01T01:24:02;100489.53;;;28.76;72.57
56040;BME280;43937;41.366;2.072;2023-08-01T01:26:28;100519.59;;;28.94;73.00
56040;BME280;43937;41.366;2.072;2023-08-01T01:28:54;100481.03;;;28.57;73.28
56040;BME280;43937;41.366;2.072;2023-08-01T01:31:20;100493.19;;;28.71;73.28
56040;BME280;43937;41.366;2.072;2023-08-01T01:33:46;100518.47;;;28.95;72.24
56040;BME280;43937;41.366;2.072;2023-08-01T01:36:11;100497.44;;;28.69;73.33
56040;BME280;43937;41.366;2.072;2023-08-01T01:38:37;100513.53;;;28.87;72.95
56040;BME280;43937;41.366;2.072;2023-08-01T01:41:02;100488.75;;;28.70;72.91
56040;BME280;43937;41.366;2.072;2023-08-01T01:43:27;100514.34;;;28.88;72.93
56040;BME280;43937;41.366;2.072;2023-08-01T01:45:53;100502.78;;;28.94;72.15
56040;BME280;43937;41.366;2.072;2023-08-01T01:48:18;100495.16;;;29.05;71.98
56040;BME280;43937;41.366;2.072;2023-08-01T01:50:44;100459.91;;;28.99;71.82
56040;BME280;43937;41.366;2.072;2023-08-01T01:53:09;100490.47;;;29.25;71.31
56040;BME280;43937;41.366;2.072;2023-08-01T01:55:35;100480.84;;;29.31;72.07
56040;BME280;43937;41.366;2.072;2023-08-01T01:58:00;100477.63;;;29.42;71.18
56040;BME280;43937;41.366;2.072;2023-08-01T02:00:25;100476.25;;;29.16;72.35
56040;BME280;43937;41.366;2.072;2023-08-01T02:02:51;100484.84;;;29.25;72.50
56040;BME280;43937;41.366;2.072;2023-08-01T02:05:16;100474.72;;;29.29;72.05
56040;BME280;43937;41.366;2.072;2023-08-01T02:07:42;100479.53;;;29.47;71.01
56040;BME280;43937;41.366;2.072;2023-08-01T02:10:07;100477.75;;;29.56;70.97
56040;BME280;43937;41.366;2.072;2023-08-01T02:12:33;100445.97;;;29.42;71.12
56040;BME280;43937;41.366;2.072;2023-08-01T02:15:00;100468.31;;;29.47;70.26
56040;BME280;43937;41.366;2.072;2023-08-01T02:17:26;100471.22;;;29.61;70.16
56040;BME280;43937;41.366;2.072;2023-08-01T02:19:51;100484.69;;;29.64;69.75
56040;BME280;43937;41.366;2.072;2023-08-01T02:22:17;100474.69;;;29.53;70.20
56040;BME280;43937;41.366;2.072;2023-08-01T02:24:42;100489.41;;;29.44;69.73
56040;BME280;43937;41.366;2.072;2023-08-01T02:27:08;100485.44;;;29.21;70.90
56040;BME280;43937;41.366;2.072;2023-08-01T02:29:34;100454.81;;;29.01;71.10
56040;BME280;43937;41.366;2.072;2023-08-01T02:31:59;100478.88;;;29.07;71.26
56040;BME280;43937;41.366;2.072;2023-08-01T02:34:24;100481.31;;;29.14;71.26
56040;BME280;43937;41.366;2.072;2023-08-01T02:36:50;100476.03;;;29.12;71.34
56040;BME280;43937;41.366;2.072;2023-08-01T02:39:15;100464.84;;;29.07;70.99
56040;BME280;43937;41.366;2.072;2023-08-01T02:41:41;100462.75;;;28.94;71.54
56040;BME280;43937;41.366;2.072;2023-08-01T02:44:06;100475.25;;;29.07;71.53
56040;BME280;43937;41.366;2.072;2023-08-01T02:46:31;100450.50;;;28.85;72.18
56040;BME280;43937;41.366;2.072;2023-08-01T02:48:57;100465.19;;;29.00;72.27
56040;BME280;43937;41.366;2.072;2023-08-01T02:51:22;100462.66;;;29.04;71.35
56040;BME280;43937;41.366;2.072;2023-08-01T02:53:48;100469.94;;;29.05;71.17
56040;BME280;43937;41.366;2.072;2023-08-01T02:56:13;100451.44;;;29.04;71.91
56040;BME280;43937;41.366;2.072;2023-08-01T02:58:39;100457.00;;;29.09;71.77
56040;BME280;43937;41.366;2.072;2023-08-01T03:01:08;100431.38;;;28.92;71.70
56040;BME280;43937;41.366;2.072;2023-08-01T03:03:37;100415.03;;;28.75;71.21
56040;BME280;43937;41.366;2.072;2023-08-01T03:06:03;100433.47;;;28.81;72.00
56040;BME280;43937;41.366;2.072;2023-08-01T03:08:28;100453.56;;;28.88;71.65
56040;BME280;43937;41.366;2.072;2023-08-01T03:10:54;100440.97;;;28.86;72.11
56040;BME280;43937;41.366;2.072;2023-08-01T03:13:20;100449.38;;;28.86;72.69
56040;BME280;43937;41.366;2.072;2023-08-01T03:15:45;100441.72;;;28.67;72.54
56040;BME280;43937;41.366;2.072;2023-08-01T03:18:11;100449.03;;;28.63;73.68
56040;BME280;43937;41.366;2.072;2023-08-01T03:20:36;100445.16;;;28.59;73.12
56040;BME280;43937;41.366;2.072;2023-08-01T03:23:02;100448.66;;;28.41;73.72
56040;BME280;43937;41.366;2.072;2023-08-01T03:25:28;100452.28;;;28.41;74.36
56040;BME280;43937;41.366;2.072;2023-08-01T03:27:53;100423.06;;;28.23;75.22
56040;BME280;43937;41.366;2.072;2023-08-01T03:32:12;100437.03;;;28.23;76.36
56040;BME280;43937;41.366;2.072;2023-08-01T03:34:37;100414.25;;;28.01;76.14
56040;BME280;43937;41.366;2.072;2023-08-01T03:37:04;100425.09;;;28.07;77.02
56040;BME280;43937;41.366;2.072;2023-08-01T03:39:29;100446.97;;;28.40;75.58
56040;BME280;43937;41.366;2.072;2023-08-01T03:41:55;100460.38;;;28.48;75.71
56040;BME280;43937;41.366;2.072;2023-08-01T03:44:20;100443.81;;;28.51;75.53
56040;BME280;43937;41.366;2.072;2023-08-01T03:46:46;100440.06;;;28.66;75.25
56040;BME280;43937;41.366;2.072;2023-08-01T03:49:12;100416.22;;;28.35;75.62
56040;BME280;43937;41.366;2.072;2023-08-01T03:51:38;100447.34;;;28.62;76.24
56040;BME280;43937;41.366;2.072;2023-08-01T03:54:03;100431.09;;;28.64;75.54
56040;BME280;43937;41.366;2.072;2023-08-01T03:56:29;100451.16;;;28.76;75.63
56040;BME280;43937;41.366;2.072;2023-08-01T03:58:55;100447.16;;;28.83;75.72
56040;BME280;43937;41.366;2.072;2023-08-01T04:01:20;100453.31;;;28.85;74.98
56040;BME280;43937;41.366;2.072;2023-08-01T04:03:46;100436.59;;;28.74;75.63
56040;BME280;43937;41.366;2.072;2023-08-01T04:06:12;100454.09;;;28.61;76.11
56040;BME280;43937;41.366;2.072;2023-08-01T04:08:40;100450.13;;;28.67;76.45
56040;BME280;43937;41.366;2.072;2023-08-01T04:11:06;100455.69;;;28.72;76.49
56040;BME280;43937;41.366;2.072;2023-08-01T04:13:31;100449.47;;;28.75;76.13
56040;BME280;43937;41.366;2.072;2023-08-01T04:16:22;100447.19;;;28.77;76.90
56040;BME280;43937;41.366;2.072;2023-08-01T04:18:47;100448.34;;;28.76;77.43
56040;BME280;43937;41.366;2.072;2023-08-01T04:21:14;100451.69;;;28.79;77.49
56040;BME280;43937;41.366;2.072;2023-08-01T04:23:40;100447.41;;;28.86;77.88
56040;BME280;43937;41.366;2.072;2023-08-01T04:26:05;100447.94;;;28.88;78.33
56040;BME280;43937;41.366;2.072;2023-08-01T04:28:32;100448.97;;;29.03;77.19
56040;BME280;43937;41.366;2.072;2023-08-01T04:30:57;100449.81;;;28.98;77.72
56040;BME280;43937;41.366;2.072;2023-08-01T04:33:23;100436.75;;;28.88;77.66
56040;BME280;43937;41.366;2.072;2023-08-01T04:35:48;100438.66;;;28.93;78.49
56040;BME280;43937;41.366;2.072;2023-08-01T04:38:15;100450.34;;;29.05;77.59
56040;BME280;43937;41.366;2.072;2023-08-01T04:40:41;100426.97;;;28.86;78.04
56040;BME280;43937;41.366;2.072;2023-08-01T04:43:06;100444.28;;;28.93;78.47
56040;BME280;43937;41.366;2.072;2023-08-01T04:45:31;100449.81;;;28.98;77.96
56040;BME280;43937;41.366;2.072;2023-08-01T04:47:57;100455.94;;;29.00;77.83
56040;BME280;43937;41.366;2.072;2023-08-01T04:50:22;100421.47;;;28.75;77.21
56040;BME280;43937;41.366;2.072;2023-08-01T04:52:48;100424.75;;;28.83;77.20
56040;BME280;43937;41.366;2.072;2023-08-01T04:55:13;100453.41;;;29.04;76.77
56040;BME280;43937;41.366;2.072;2023-08-01T04:57:39;100440.56;;;29.03;75.58
56040;BME280;43937;41.366;2.072;2023-08-01T05:00:05;100446.66;;;29.05;75.12
56040;BME280;43937;41.366;2.072;2023-08-01T05:02:31;100449.09;;;28.87;74.27
56040;BME280;43937;41.366;2.072;2023-08-01T05:04:56;100426.34;;;28.65;74.67
56040;BME280;43937;41.366;2.072;2023-08-01T05:07:22;100452.75;;;28.83;74.23
56040;BME280;43937;41.366;2.072;2023-08-01T05:09:47;100451.69;;;28.79;74.63
56040;BME280;43937;41.366;2.072;2023-08-01T05:12:12;100457.00;;;28.80;74.40
56040;BME280;43937;41.366;2.072;2023-08-01T05:14:38;100437.06;;;28.87;74.33
56040;BME280;43937;41.366;2.072;2023-08-01T05:17:04;100449.00;;;28.92;73.53
56040;BME280;43937;41.366;2.072;2023-08-01T05:19:29;100462.84;;;29.13;73.23
56040;BME280;43937;41.366;2.072;2023-08-01T05:21:55;100436.19;;;29.15;72.75
56040;BME280;43937;41.366;2.072;2023-08-01T05:24:20;100443.56;;;29.54;71.54
56040;BME280;43937;41.366;2.072;2023-08-01T05:26:46;100428.88;;;30.38;68.45
56040;BME280;43937;41.366;2.072;2023-08-01T05:29:12;100438.00;;;31.37;64.53
56040;BME280;43937;41.366;2.072;2023-08-01T05:31:37;100438.59;;;31.61;62.95
56040;BME280;43937;41.366;2.072;2023-08-01T05:34:03;100450.59;;;31.12;65.05
56040;BME280;43937;41.366;2.072;2023-08-01T05:36:28;100441.25;;;30.70;65.87
56040;BME280;43937;41.366;2.072;2023-08-01T05:38:54;100453.09;;;31.13;64.03
56040;BME280;43937;41.366;2.072;2023-08-01T05:41:19;100447.59;;;31.36;64.64
56040;BME280;43937;41.366;2.072;2023-08-01T05:43:47;100446.97;;;32.93;59.25
56040;BME280;43937;41.366;2.072;2023-08-01T05:46:13;100441.53;;;34.19;54.73
56040;BME280;43937;41.366;2.072;2023-08-01T05:48:38;100440.13;;;35.25;51.91
56040;BME280;43937;41.366;2.072;2023-08-01T05:51:04;100464.75;;;35.92;50.42
56040;BME280;43937;41.366;2.072;2023-08-01T05:53:29;100464.75;;;37.01;47.25
56040;BME280;43937;41.366;2.072;2023-08-01T05:55:55;100472.38;;;37.70;45.97
56040;BME280;43937;41.366;2.072;2023-08-01T05:58:21;100460.06;;;38.43;44.13
56040;BME280;43937;41.366;2.072;2023-08-01T06:00:46;100461.34;;;39.22;42.20
56040;BME280;43937;41.366;2.072;2023-08-01T06:03:12;100469.63;;;40.10;40.54
56040;BME280;43937;41.366;2.072;2023-08-01T06:05:37;100462.63;;;40.07;39.53
56040;BME280;43937;41.366;2.072;2023-08-01T06:08:03;100474.78;;;40.04;39.51
56040;BME280;43937;41.366;2.072;2023-08-01T06:10:29;100469.63;;;40.48;38.68
56040;BME280;43937;41.366;2.072;2023-08-01T06:12:55;100486.41;;;38.56;42.30
56040;BME280;43937;41.366;2.072;2023-08-01T06:15:20;100476.16;;;37.87;43.83
56040;BME280;43937;41.366;2.072;2023-08-01T06:17:46;100479.91;;;37.05;45.26
56040;BME280;43937;41.366;2.072;2023-08-01T06:20:12;100476.69;;;36.61;47.42
56040;BME280;43937;41.366;2.072;2023-08-01T06:22:38;100482.44;;;35.60;48.97
56040;BME280;43937;41.366;2.072;2023-08-01T06:27:17;100484.19;;;34.79;51.34
56040;BME280;43937;41.366;2.072;2023-08-01T06:29:43;100495.31;;;37.16;46.05
56040;BME280;43937;41.366;2.072;2023-08-01T06:32:08;100495.00;;;39.16;41.46
56040;BME280;43937;41.366;2.072;2023-08-01T06:34:33;100498.69;;;38.88;41.63
56040;BME280;43937;41.366;2.072;2023-08-01T06:36:59;100495.31;;;37.16;44.92
56040;BME280;43937;41.366;2.072;2023-08-01T06:39:24;100499.13;;;36.87;46.16
56040;BME280;43937;41.366;2.072;2023-08-01T06:41:50;100492.50;;;37.77;43.79
56040;BME280;43937;41.366;2.072;2023-08-01T06:44:15;100484.44;;;36.10;47.61
56040;BME280;43937;41.366;2.072;2023-08-01T06:46:41;100489.00;;;35.04;50.04
56040;BME280;43937;41.366;2.072;2023-08-01T06:49:06;100487.72;;;34.58;51.37
56040;BME280;43937;41.366;2.072;2023-08-01T06:51:32;100487.72;;;34.41;52.15
56040;BME280;43937;41.366;2.072;2023-08-01T06:53:57;100502.63;;;37.05;46.13
56040;BME280;43937;41.366;2.072;2023-08-01T06:56:22;100511.63;;;37.07;45.26
56040;BME280;43937;41.366;2.072;2023-08-01T06:58:48;100504.03;;;36.23;47.43
56040;BME280;43937;41.366;2.072;2023-08-01T07:01:13;100486.13;;;35.51;49.27
56040;BME280;43937;41.366;2.072;2023-08-01T07:03:39;100484.78;;;35.19;49.83
56040;BME280;43937;41.366;2.072;2023-08-01T07:06:04;100479.41;;;35.26;49.57
56040;BME280;43937;41.366;2.072;2023-08-01T07:08:30;100509.31;;;35.45;49.52
56040;BME280;43937;41.366;2.072;2023-08-01T07:10:55;100514.44;;;35.51;49.06
56040;BME280;43937;41.366;2.072;2023-08-01T07:13:20;100513.44;;;36.90;45.91
56040;BME280;43937;41.366;2.072;2023-08-01T07:15:47;100509.91;;;39.41;40.54
56040;BME280;43937;41.366;2.072;2023-08-01T07:18:13;100523.75;;;41.26;36.52
56040;BME280;43937;41.366;2.072;2023-08-01T07:20:39;100503.31;;;42.57;34.60
56040;BME280;43937;41.366;2.072;2023-08-01T07:23:04;100510.66;;;41.22;35.82
56040;BME280;43937;41.366;2.072;2023-08-01T07:25:29;100507.47;;;38.67;40.53
56040;BME280;43937;41.366;2.072;2023-08-01T07:27:55;100512.38;;;38.02;42.29
56040;BME280;43937;41.366;2.072;2023-08-01T07:30:20;100516.72;;;36.80;44.53
56040;BME280;43937;41.366;2.072;2023-08-01T07:32:46;100509.00;;;39.37;39.20
56040;BME280;43937;41.366;2.072;2023-08-01T07:35:12;100515.16;;;41.95;34.51
56040;BME280;43937;41.366;2.072;2023-08-01T07:37:38;100518.91;;;43.86;31.99
56040;BME280;43937;41.366;2.072;2023-08-01T07:40:05;100519.00;;;44.77;30.35
56040;BME280;43937;41.366;2.072;2023-08-01T07:42:31;100518.72;;;45.57;29.40
56040;BME280;43937;41.366;2.072;2023-08-01T07:44:56;100519.56;;;45.76;27.53
56040;BME280;43937;41.366;2.072;2023-08-01T07:47:22;100507.09;;;46.40;27.15
56040;BME280;43937;41.366;2.072;2023-08-01T07:49:49;100502.16;;;47.62;26.62
56040;BME280;43937;41.366;2.072;2023-08-01T07:52:15;100505.34;;;48.47;24.56
56040;BME280;43937;41.366;2.072;2023-08-01T07:54:40;100503.03;;;48.35;24.61
56040;BME280;43937;41.366;2.072;2023-08-01T07:57:06;100430.66;;;46.94;25.92
56040;BME280;43937;41.366;2.072;2023-08-01T07:59:31;100487.13;;;47.85;24.46
56040;BME280;43937;41.366;2.072;2023-08-01T08:01:57;100509.09;;;48.10;24.85
56040;BME280;43937;41.366;2.072;2023-08-01T08:04:22;100496.09;;;46.94;26.17
56040;BME280;43937;41.366;2.072;2023-08-01T08:06:47;100487.84;;;46.15;26.21
56040;BME280;43937;41.366;2.072;2023-08-01T08:09:13;100503.94;;;45.59;27.20
56040;BME280;43937;41.366;2.072;2023-08-01T08:11:38;100508.97;;;46.78;26.03
56040;BME280;43937;41.366;2.072;2023-08-01T08:14:04;100506.91;;;47.35;25.24
56040;BME280;43937;41.366;2.072;2023-08-01T08:16:29;100505.25;;;48.24;23.68
56040;BME280;43937;41.366;2.072;2023-08-01T08:18:55;100500.09;;;47.63;23.95
56040;BME280;43937;41.366;2.072;2023-08-01T08:21:21;100493.41;;;48.11;24.17
56040;BME280;43937;41.366;2.072;2023-08-01T08:23:46;100495.66;;;48.65;23.13
56040;BME280;43937;41.366;2.072;2023-08-01T08:26:11;100475.16;;;47.38;23.78
56040;BME280;43937;41.366;2.072;2023-08-01T08:28:37;100510.13;;;48.30;22.98
56040;BME280;43937;41.366;2.072;2023-08-01T08:31:02;100508.56;;;48.22;23.50
56040;BME280;43937;41.366;2.072;2023-08-01T08:33:30;100496.47;;;44.93;26.37
56040;BME280;43937;41.366;2.072;2023-08-01T08:35:56;100504.41;;;46.85;24.74
56040;BME280;43937;41.366;2.072;2023-08-01T08:38:21;100498.81;;;47.19;23.67
56040;BME280;43937;41.366;2.072;2023-08-01T08:40:55;100505.06;;;43.95;26.94
56040;BME280;43937;41.366;2.072;2023-08-01T08:43:23;100479.72;;;43.05;28.22
56040;BME280;43937;41.366;2.072;2023-08-01T08:45:50;100494.34;;;39.70;34.24
56040;BME280;43937;41.366;2.072;2023-08-01T08:48:18;100481.66;;;38.60;35.48
56040;BME280;43937;41.366;2.072;2023-08-01T08:50:46;100489.31;;;39.79;34.14
56040;BME280;43937;41.366;2.072;2023-08-01T08:53:13;100495.59;;;42.95;29.76
56040;BME280;43937;41.366;2.072;2023-08-01T08:56:03;100508.78;;;44.83;26.97
56040;BME280;43937;41.366;2.072;2023-08-01T08:58:30;100508.88;;;45.76;25.92
56040;BME280;43937;41.366;2.072;2023-08-01T09:01:01;100502.19;;;46.29;24.83
56040;BME280;43937;41.366;2.072;2023-08-01T09:03:28;100508.28;;;46.46;24.82
56040;BME280;43937;41.366;2.072;2023-08-01T09:06:04;100508.06;;;45.51;26.00
56040;BME280;43937;41.366;2.072;2023-08-01T09:08:35;100502.31;;;45.36;25.87
56040;BME280;43937;41.366;2.072;2023-08-01T09:11:01;100487.50;;;44.00;27.55
56040;BME280;43937;41.366;2.072;2023-08-01T09:13:26;100491.16;;;41.50;30.64
56040;BME280;43937;41.366;2.072;2023-08-01T09:15:52;100475.16;;;39.51;33.25
56040;BME280;43937;41.366;2.072;2023-08-01T09:18:18;100478.72;;;38.16;34.58
56040;BME280;43937;41.366;2.072;2023-08-01T09:20:48;100464.28;;;36.99;36.29
56040;BME280;43937;41.366;2.072;2023-08-01T09:23:14;100473.81;;;37.64;35.95
56040;BME280;43937;41.366;2.072;2023-08-01T09:25:40;100477.34;;;38.94;33.99
56040;BME280;43937;41.366;2.072;2023-08-01T09:28:19;100472.75;;;39.22;32.57
56040;BME280;43937;41.366;2.072;2023-08-01T09:30:50;100472.22;;;39.16;33.13
56040;BME280;43937;41.366;2.072;2023-08-01T09:33:15;100476.06;;;38.92;33.20
56040;BME280;43937;41.366;2.072;2023-08-01T09:35:41;100468.28;;;38.20;33.63
56040;BME280;43937;41.366;2.072;2023-08-01T09:38:09;100468.63;;;39.19;32.55
56040;BME280;43937;41.366;2.072;2023-08-01T09:40:39;100472.28;;;40.02;31.46
56040;BME280;43937;41.366;2.072;2023-08-01T09:43:04;100475.59;;;40.40;30.90
56040;BME280;43937;41.366;2.072;2023-08-01T09:45:30;100478.22;;;40.91;30.81
56040;BME280;43937;41.366;2.072;2023-08-01T09:47:55;100458.44;;;41.02;31.16
56040;BME280;43937;41.366;2.072;2023-08-01T09:50:22;100475.03;;;41.15;31.39
56040;BME280;43937;41.366;2.072;2023-08-01T09:52:48;100480.81;;;41.00;31.42
56040;BME280;43937;41.366;2.072;2023-08-01T09:55:25;100475.50;;;40.98;31.67
56040;BME280;43937;41.366;2.072;2023-08-01T09:57:53;100475.00;;;41.38;31.91
56040;BME280;43937;41.366;2.072;2023-08-01T10:00:21;100474.28;;;41.45;31.71
56040;BME280;43937;41.366;2.072;2023-08-01T10:02:47;100470.47;;;41.11;33.97
56040;BME280;43937;41.366;2.072;2023-08-01T10:05:16;100447.72;;;41.18;33.28
56040;BME280;43937;41.366;2.072;2023-08-01T10:07:44;100462.25;;;41.09;33.62
56040;BME280;43937;41.366;2.072;2023-08-01T10:10:10;100472.31;;;41.23;33.90
56040;BME280;43937;41.366;2.072;2023-08-01T10:12:37;100472.91;;;41.12;33.99
56040;BME280;43937;41.366;2.072;2023-08-01T10:15:03;100476.16;;;41.11;33.82
56040;BME280;43937;41.366;2.072;2023-08-01T10:17:30;100462.34;;;41.13;33.20
56040;BME280;43937;41.366;2.072;2023-08-01T10:19:56;100454.78;;;41.01;32.49
56040;BME280;43937;41.366;2.072;2023-08-01T10:22:24;100471.63;;;41.33;31.84
56040;BME280;43937;41.366;2.072;2023-08-01T10:24:50;100439.06;;;41.11;30.92
56040;BME280;43937;41.366;2.072;2023-08-01T10:27:20;100460.91;;;41.03;30.76
56040;BME280;43937;41.366;2.072;2023-08-01T10:29:56;100466.13;;;40.97;30.79
56040;BME280;43937;41.366;2.072;2023-08-01T10:32:29;100462.78;;;41.15;30.03
56040;BME280;43937;41.366;2.072;2023-08-01T10:34:56;100450.41;;;40.45;29.96
56040;BME280;43937;41.366;2.072;2023-08-01T10:37:21;100416.94;;;40.62;29.43
56040;BME280;43937;41.366;2.072;2023-08-01T10:39:56;100450.94;;;40.51;30.20
56040;BME280;43937;41.366;2.072;2023-08-01T10:42:22;100446.56;;;40.57;30.27
56040;BME280;43937;41.366;2.072;2023-08-01T10:44:47;100449.97;;;40.24;30.48
56040;BME280;43937;41.366;2.072;2023-08-01T10:47:13;100448.25;;;40.39;29.69
56040;BME280;43937;41.366;2.072;2023-08-01T10:49:42;100448.78;;;40.44;28.86
56040;BME280;43937;41.366;2.072;2023-08-01T10:52:18;100441.00;;;40.06;29.52
56040;BME280;43937;41.366;2.072;2023-08-01T10:54:43;100435.25;;;40.02;29.75
56040;BME280;43937;41.366;2.072;2023-08-01T10:57:15;100440.63;;;39.88;30.18
56040;BME280;43937;41.366;2.072;2023-08-01T10:59:41;100442.34;;;39.73;30.63
56040;BME280;43937;41.366;2.072;2023-08-01T11:02:07;100442.78;;;39.59;30.49
56040;BME280;43937;41.366;2.072;2023-08-01T11:04:33;100439.19;;;39.78;30.32
56040;BME280;43937;41.366;2.072;2023-08-01T11:06:58;100421.78;;;39.48;31.14
56040;BME280;43937;41.366;2.072;2023-08-01T11:09:25;100428.59;;;39.79;30.70
56040;BME280;43937;41.366;2.072;2023-08-01T11:11:56;100428.94;;;39.93;29.77
56040;BME280;43937;41.366;2.072;2023-08-01T11:14:28;100411.97;;;40.00;29.94
56040;BME280;43937;41.366;2.072;2023-08-01T11:16:55;100423.69;;;39.95;29.95
56040;BME280;43937;41.366;2.072;2023-08-01T11:19:26;100420.25;;;39.86;29.48
56040;BME280;43937;41.366;2.072;2023-08-01T11:21:53;100406.69;;;40.38;28.87
56040;BME280;43937;41.366;2.072;2023-08-01T11:24:20;100416.31;;;39.75;29.58
56040;BME280;43937;41.366;2.072;2023-08-01T11:26:47;100414.09;;;40.03;29.29
56040;BME280;43937;41.366;2.072;2023-08-01T11:29:14;100409.50;;;39.63;29.60
56040;BME280;43937;41.366;2.072;2023-08-01T11:31:41;100408.69;;;39.98;29.39
56040;BME280;43937;41.366;2.072;2023-08-01T11:34:07;100407.38;;;39.41;29.82
56040;BME280;43937;41.366;2.072;2023-08-01T11:36:35;100394.41;;;39.44;29.82
56040;BME280;43937;41.366;2.072;2023-08-01T11:39:01;100405.81;;;39.79;29.23
56040;BME280;43937;41.366;2.072;2023-08-01T11:41:27;100365.41;;;39.57;29.56
56040;BME280;43937;41.366;2.072;2023-08-01T11:43:53;100389.19;;;39.30;29.80
56040;BME280;43937;41.366;2.072;2023-08-01T11:46:20;100391.28;;;39.84;28.72
56040;BME280;43937;41.366;2.072;2023-08-01T11:48:47;100391.69;;;39.31;29.15
56040;BME280;43937;41.366;2.072;2023-08-01T11:51:13;100376.19;;;39.48;28.88
56040;BME280;43937;41.366;2.072;2023-08-01T11:53:38;100383.31;;;38.75;28.98
56040;BME280;43937;41.366;2.072;2023-08-01T11:56:05;100380.09;;;38.77;28.84
56040;BME280;43937;41.366;2.072;2023-08-01T11:58:33;100358.44;;;38.56;29.23
56040;BME280;43937;41.366;2.072;2023-08-01T12:03:29;100367.47;;;38.46;29.84
56040;BME280;43937;41.366;2.072;2023-08-01T12:06:06;100354.78;;;38.27;30.04
56040;BME280;43937;41.366;2.072;2023-08-01T12:08:33;100349.72;;;38.21;30.19
56040;BME280;43937;41.366;2.072;2023-08-01T12:10:59;100364.09;;;38.40;30.50
56040;BME280;43937;41.366;2.072;2023-08-01T12:13:26;100357.75;;;37.91;31.47
56040;BME280;43937;41.366;2.072;2023-08-01T12:15:53;100349.72;;;38.21;30.75
56040;BME280;43937;41.366;2.072;2023-08-01T12:18:29;100327.44;;;38.07;30.61
56040;BME280;43937;41.366;2.072;2023-08-01T12:20:55;100333.28;;;38.14;30.14
56040;BME280;43937;41.366;2.072;2023-08-01T12:23:21;100340.66;;;37.75;30.77
56040;BME280;43937;41.366;2.072;2023-08-01T12:25:47;100346.28;;;37.87;30.98
56040;BME280;43937;41.366;2.072;2023-08-01T12:28:15;100310.34;;;37.26;31.71
56040;BME280;43937;41.366;2.072;2023-08-01T12:30:41;100329.13;;;37.96;30.27
56040;BME280;43937;41.366;2.072;2023-08-01T12:33:08;100340.91;;;38.10;30.08
56040;BME280;43937;41.366;2.072;2023-08-01T12:35:33;100312.84;;;38.24;30.56
56040;BME280;43937;41.366;2.072;2023-08-01T12:37:59;100325.91;;;38.25;30.51
56040;BME280;43937;41.366;2.072;2023-08-01T12:40:25;100328.59;;;38.82;29.88
56040;BME280;43937;41.366;2.072;2023-08-01T12:42:50;100299.06;;;38.39;30.02
56040;BME280;43937;41.366;2.072;2023-08-01T12:45:15;100318.06;;;38.51;30.42
56040;BME280;43937;41.366;2.072;2023-08-01T12:47:41;100320.13;;;38.38;31.92
56040;BME280;43937;41.366;2.072;2023-08-01T12:50:07;100307.88;;;38.49;32.26
56040;BME280;43937;41.366;2.072;2023-08-01T12:52:33;100312.28;;;38.63;33.32